Bethel, North Carolina
Current Conditions -  °F | °C
As of 6:10 AM on Saturday 25 Oct 2014 (Local Time) from KPGV Reporting Station
Light Snow Light Snow  
Wind Chill: 43°   Ceiling: 500
Heat Index: 43°   Visibility: 0.75mi
Dew Point: 43°   Wind: 0mph
Humidity: 100%   Direction: NA
Pressure: 30"   Gusts: NA
Location:  35.81°N, 77.38°W
Report Text: KPGV 251010Z AUTO 00000KT 3/4SM -SN VV005 06/06 A3000 RMK AO2
Loading
Personal Weather Stations






























Interactive Weather Map
Tropical Storm Tracking
New forecast layout! Learn more

10-Day Weather Forecast

Advertisements
Track Severe Weather on mobile